Time;durP1;ratioP1;P1;durP2;ratioP2;P2;SDS_P1;SDS_P2;PMS_P1;PMS_P2;Temp;Humidity;BMP_temperature;BMP_pressure;BME280_temperature;BME280_humidity;BME280_pressure;Samples;Min_cycle;Max_cycle;Signal;HPM_P1;HPM_P2
2021/01/11 00:01:47;;;;;;;;;;;;;;;-1.82;65.68;98767.66;1739688;81;20265;-86
2021/01/11 00:04:33;;;;;;;;;;;;;;;-1.83;65.69;98763.83;1736213;81;24914;-85
2021/01/11 00:07:20;;;;;;;;;;;;;;;-1.76;65.71;98762.88;1737305;81;22158;-85
2021/01/11 00:10:10;;;;;;;;;;;;;;;-1.76;65.75;98760.30;1738742;81;26176;-85
2021/01/11 00:12:53;;;;;;;;;;;;;;;-1.81;65.76;98753.97;1738143;81;24703;-85
2021/01/11 00:15:39;;;;;;;;;;;;;;;-1.82;65.75;98760.40;1739735;81;20289;-85
2021/01/11 00:18:14;;;;;;;;;;;;;;;-1.85;65.76;98752.73;1737456;81;25157;-85
2021/01/11 00:21:00;;;;;;;;;;;;;;;-1.97;65.77;98746.09;1737241;81;22115;-85
2021/01/11 00:23:46;;;;;;;;;;;;;;;-2.00;65.77;98744.84;1735406;81;26166;-85
2021/01/11 00:26:32;;;;;;;;;;;;;;;-2.00;65.77;98747.84;1741969;81;24623;-86
2021/01/11 00:29:19;;;;;;;;;;;;;;;-2.26;65.78;98744.37;1742753;81;20260;-85
2021/01/11 00:32:07;;;;;;;;;;;;;;;-2.51;65.75;98746.86;1736177;81;24879;-86
2021/01/11 00:34:53;;;;;;;;;;;;;;;-2.63;65.72;98746.58;1731276;81;22978;-86
2021/01/11 00:37:40;;;;;;;;;;;;;;;-2.63;65.71;98741.45;1736954;81;26131;-86
2021/01/11 00:40:25;;;;;;;;;;;;;;;-2.66;65.70;98745.31;1736669;81;24817;-85
2021/01/11 00:43:12;;;;;;;;;;;;;;;-2.70;65.73;98738.55;1741072;81;20354;-85
2021/01/11 00:45:58;;;;;;;;;;;;;;;-2.63;65.77;98735.90;1738578;81;24860;-85
2021/01/11 00:48:44;;;;;;;;;;;;;;;-2.51;65.82;98736.18;1738078;81;22217;-86
2021/01/11 00:51:32;;;;;;;;;;;;;;;-2.47;65.88;98722.89;1737978;81;26100;-86
2021/01/11 00:54:18;;;;;;;;;;;;;;;-2.58;65.94;98726.88;1738796;81;24825;-86
2021/01/11 00:57:04;;;;;;;;;;;;;;;-2.66;65.96;98731.23;1738981;81;20381;-86
2021/01/11 00:59:52;;;;;;;;;;;;;;;-2.77;65.97;98729.23;1736769;81;21566;-86
2021/01/11 01:02:38;;;;;;;;;;;;;;;-2.85;65.97;98728.06;1743379;80;22156;-85
2021/01/11 01:05:27;;;;;;;;;;;;;;;-2.91;65.98;98726.00;1674842;84;27136;-85
2021/01/11 01:08:13;;;;;;;;;;;;;;;-2.99;66.00;98723.08;1676037;84;24613;-85
2021/01/11 01:10:59;;;;;;;;;;;;;;;-3.06;65.99;98724.47;1739729;81;20632;-86
2021/01/11 01:13:46;;;;;;;;;;;;;;;-2.99;66.04;98725.64;1743149;81;24840;-86
2021/01/11 01:16:34;;;;;;;;;;;;;;;-2.86;66.11;98725.52;1739882;80;21951;-85
2021/01/11 01:19:21;;;;;;;;;;;;;;;-2.67;66.19;98725.69;1744028;81;26950;-85
2021/01/11 01:22:06;;;;;;;;;;;;;;;-2.60;66.24;98724.75;1745416;81;24700;-85
2021/01/11 01:24:53;;;;;;;;;;;;;;;-2.64;66.31;98723.95;1741628;81;20507;-85
2021/01/11 01:27:39;;;;;;;;;;;;;;;-2.52;66.35;98717.83;1738793;81;24892;-86
2021/01/11 01:30:25;;;;;;;;;;;;;;;-2.35;66.43;98721.45;1738309;81;22213;-85
2021/01/11 01:33:11;;;;;;;;;;;;;;;-2.43;66.48;98715.56;1743172;81;26148;-86
2021/01/11 01:35:46;;;;;;;;;;;;;;;-2.69;66.47;98723.59;1674268;84;24589;-86
2021/01/11 01:38:33;;;;;;;;;;;;;;;-2.81;66.46;98719.47;1686828;84;20372;-86
2021/01/11 01:41:22;;;;;;;;;;;;;;;-2.64;66.47;98712.86;1742503;81;25074;-86
2021/01/11 01:44:08;;;;;;;;;;;;;;;-2.48;66.50;98715.63;1741936;81;22231;-84
2021/01/11 01:46:54;;;;;;;;;;;;;;;-2.54;66.53;98708.88;1741744;81;26129;-84
2021/01/11 01:49:42;;;;;;;;;;;;;;;-2.54;66.54;98708.02;1741177;81;24647;-85
2021/01/11 01:52:28;;;;;;;;;;;;;;;-2.40;66.55;98704.83;1739297;81;20252;-85
2021/01/11 01:55:15;;;;;;;;;;;;;;;-2.26;66.61;98705.50;1742848;81;25063;-85
2021/01/11 01:58:01;;;;;;;;;;;;;;;-2.22;66.65;98702.45;1743248;81;22161;-85
2021/01/11 02:00:47;;;;;;;;;;;;;;;-2.38;66.67;98698.41;1742112;81;26091;-85
2021/01/11 02:03:33;;;;;;;;;;;;;;;-2.36;66.67;98696.69;1743354;81;24820;-84
2021/01/11 02:06:19;;;;;;;;;;;;;;;-2.27;66.68;98691.41;1742006;81;20237;-84
2021/01/11 02:09:05;;;;;;;;;;;;;;;-2.48;66.67;98685.31;1740363;81;25728;-84
2021/01/11 02:11:51;;;;;;;;;;;;;;;-2.62;66.63;98682.95;1742403;81;23070;-85
2021/01/11 02:14:38;;;;;;;;;;;;;;;-2.50;66.63;98685.33;1742053;81;26113;-85
2021/01/11 02:17:25;;;;;;;;;;;;;;;-2.49;66.64;98679.34;1740587;81;24831;-86
2021/01/11 02:20:11;;;;;;;;;;;;;;;-2.45;66.66;98678.85;1741748;81;20273;-86
2021/01/11 02:22:58;;;;;;;;;;;;;;;-2.33;66.70;98682.09;1738834;82;24897;-86
2021/01/11 02:25:44;;;;;;;;;;;;;;;-2.36;66.71;98680.03;1739800;81;21865;-85
2021/01/11 02:28:33;;;;;;;;;;;;;;;-2.35;66.73;98676.17;1739006;81;27043;-86
2021/01/11 02:31:23;;;;;;;;;;;;;;;-2.29;66.75;98676.05;1744011;81;24610;-86
2021/01/11 02:34:09;;;;;;;;;;;;;;;-2.27;66.75;98670.48;1742667;81;20521;-86
2021/01/11 02:36:55;;;;;;;;;;;;;;;-2.18;66.77;98667.77;1743450;81;25063;-85
2021/01/11 02:39:41;;;;;;;;;;;;;;;-2.16;66.78;98667.31;1744948;81;22132;-86
2021/01/11 02:42:26;;;;;;;;;;;;;;;-2.16;66.77;98669.88;1742157;82;26391;-85
2021/01/11 02:45:13;;;;;;;;;;;;;;;-2.24;66.75;98669.60;1736334;81;24580;-85
2021/01/11 02:48:02;;;;;;;;;;;;;;;-2.23;66.76;98677.67;1743186;81;20263;-85
2021/01/11 02:50:48;;;;;;;;;;;;;;;-2.50;66.74;98671.67;1746725;81;24911;-86
2021/01/11 02:53:34;;;;;;;;;;;;;;;-2.84;66.65;98672.58;1741017;81;22108;-85
2021/01/11 02:56:24;;;;;;;;;;;;;;;-3.09;66.57;98669.02;1744077;81;26172;-85
2021/01/11 02:59:11;;;;;;;;;;;;;;;-3.28;66.51;98671.82;1741687;81;25480;-85
2021/01/11 03:02:00;;;;;;;;;;;;;;;-3.48;66.46;98663.06;1747371;80;20272;-86
2021/01/11 03:04:46;;;;;;;;;;;;;;;-3.46;66.42;98659.64;1755083;80;24988;-85
2021/01/11 03:07:32;;;;;;;;;;;;;;;-3.29;66.42;98660.73;1688165;83;22217;-85
2021/01/11 03:10:19;;;;;;;;;;;;;;;-3.12;66.49;98661.39;1695099;83;26197;-85
2021/01/11 03:13:04;;;;;;;;;;;;;;;-3.15;66.54;98663.97;1685151;83;24787;-85
2021/01/11 03:15:51;;;;;;;;;;;;;;;-3.32;66.59;98665.88;1709345;82;20619;-85
2021/01/11 03:18:37;;;;;;;;;;;;;;;-3.23;66.62;98675.17;1708619;83;25060;-85
2021/01/11 03:21:23;;;;;;;;;;;;;;;-3.08;66.66;98674.99;1713525;82;22210;-85
2021/01/11 03:24:12;;;;;;;;;;;;;;;-3.11;66.72;98681.44;1685518;84;26190;-85
2021/01/11 03:26:59;;;;;;;;;;;;;;;-2.94;66.77;98676.94;1679040;84;24700;-85
2021/01/11 03:29:45;;;;;;;;;;;;;;;-2.76;66.83;98677.16;1691111;83;20370;-85
2021/01/11 03:32:31;;;;;;;;;;;;;;;-2.65;66.89;98672.73;1719756;82;25770;-85
2021/01/11 03:35:16;;;;;;;;;;;;;;;-2.73;66.93;98673.29;1718420;82;22003;-87
2021/01/11 03:38:02;;;;;;;;;;;;;;;-2.75;66.99;98669.89;1714024;82;26096;-85
2021/01/11 03:40:49;;;;;;;;;;;;;;;-2.63;67.01;98665.89;1717904;82;24638;-85
2021/01/11 03:43:35;;;;;;;;;;;;;;;-2.51;67.05;98662.31;1701414;83;20522;-85
2021/01/11 03:46:21;;;;;;;;;;;;;;;-2.68;67.08;98662.55;1712638;82;24926;-85
2021/01/11 03:49:07;;;;;;;;;;;;;;;-2.85;67.06;98664.05;1663064;83;22059;-86
2021/01/11 03:51:53;;;;;;;;;;;;;;;-2.99;67.05;98665.48;1702593;83;26144;-86
2021/01/11 03:54:39;;;;;;;;;;;;;;;-3.13;67.03;98662.25;1709767;83;24618;-85
2021/01/11 03:57:26;;;;;;;;;;;;;;;-3.16;67.00;98666.11;1712949;82;20346;-85
2021/01/11 04:00:12;;;;;;;;;;;;;;;-2.95;67.04;98661.20;1703995;83;25065;-85
2021/01/11 04:02:58;;;;;;;;;;;;;;;-2.81;67.08;98661.85;1703564;83;22149;-85
2021/01/11 04:05:48;;;;;;;;;;;;;;;-2.73;67.14;98658.77;1753273;80;26141;-85
2021/01/11 04:08:34;;;;;;;;;;;;;;;-2.67;67.21;98657.38;1753632;80;24790;-86
2021/01/11 04:11:23;;;;;;;;;;;;;;;-2.76;67.24;98656.23;1751506;80;20277;-86
2021/01/11 04:14:09;;;;;;;;;;;;;;;-2.96;67.25;98655.22;1759031;80;24918;-86
2021/01/11 04:16:55;;;;;;;;;;;;;;;-3.03;67.23;98649.76;1751561;80;22148;-86
2021/01/11 04:19:41;;;;;;;;;;;;;;;-2.95;67.24;98649.20;1757465;80;26168;-86
2021/01/11 04:22:28;;;;;;;;;;;;;;;-2.95;67.24;98653.05;1763048;80;25263;-86
2021/01/11 04:25:14;;;;;;;;;;;;;;;-2.96;67.27;98655.66;1758004;80;20314;-86
2021/01/11 04:28:01;;;;;;;;;;;;;;;-2.96;67.29;98651.38;1687331;83;25075;-87
2021/01/11 04:30:47;;;;;;;;;;;;;;;-2.98;67.29;98652.25;1754773;80;21970;-86
2021/01/11 04:33:34;;;;;;;;;;;;;;;-2.92;67.28;98650.90;1761877;80;26033;-86
2021/01/11 04:36:20;;;;;;;;;;;;;;;-2.89;67.30;98655.15;1754100;80;24897;-86
2021/01/11 04:39:10;;;;;;;;;;;;;;;-2.85;67.31;98648.69;1755634;80;20252;-86
2021/01/11 04:41:56;;;;;;;;;;;;;;;-2.88;67.34;98653.83;1756332;80;24962;-86
2021/01/11 04:44:42;;;;;;;;;;;;;;;-2.91;67.33;98660.28;1750250;80;23045;-86
2021/01/11 04:47:28;;;;;;;;;;;;;;;-3.08;67.33;98654.09;1755196;80;26181;-86
2021/01/11 04:50:14;;;;;;;;;;;;;;;-3.07;67.32;98658.77;1753525;80;24681;-86
2021/01/11 04:53:00;;;;;;;;;;;;;;;-3.11;67.32;98657.13;1751610;80;20268;-86
2021/01/11 04:55:47;;;;;;;;;;;;;;;-3.08;67.31;98657.08;1756567;80;25887;-85
2021/01/11 04:58:33;;;;;;;;;;;;;;;-3.00;67.34;98657.84;1755147;80;22331;-86
2021/01/11 05:01:19;;;;;;;;;;;;;;;-3.05;67.35;98652.75;1747691;80;26094;-86
2021/01/11 05:04:06;;;;;;;;;;;;;;;-3.20;67.35;98645.27;1744984;81;24774;-85
2021/01/11 05:06:52;;;;;;;;;;;;;;;-3.32;67.35;98650.52;1747309;81;20497;-86
2021/01/11 05:09:38;;;;;;;;;;;;;;;-3.27;67.35;98647.47;1744071;81;25074;-86
2021/01/11 05:12:26;;;;;;;;;;;;;;;-3.29;67.35;98650.93;1744365;81;22159;-86
2021/01/11 05:15:12;;;;;;;;;;;;;;;-3.22;67.39;98651.28;1744271;81;27066;-86
2021/01/11 05:17:58;;;;;;;;;;;;;;;-3.16;67.40;98647.34;1744005;81;25449;-86
2021/01/11 05:20:44;;;;;;;;;;;;;;;-3.26;67.44;98654.30;1744533;81;20278;-85
2021/01/11 05:23:30;;;;;;;;;;;;;;;-3.25;67.42;98650.88;1745621;81;24912;-85
2021/01/11 05:26:16;;;;;;;;;;;;;;;-3.19;67.43;98650.80;1747790;81;22062;-85
2021/01/11 05:29:02;;;;;;;;;;;;;;;-3.31;67.42;98648.81;1746652;81;26202;-85
2021/01/11 05:31:48;;;;;;;;;;;;;;;-3.23;67.43;98651.72;1744205;81;25419;-84
2021/01/11 05:34:36;;;;;;;;;;;;;;;-3.19;67.46;98653.36;1748651;81;20558;-85
2021/01/11 05:37:22;;;;;;;;;;;;;;;-3.16;67.48;98654.59;1744277;82;24882;-85
2021/01/11 05:40:12;;;;;;;;;;;;;;;-3.14;67.51;98655.44;1748621;81;22240;-85
2021/01/11 05:42:59;;;;;;;;;;;;;;;-3.23;67.50;98652.99;1712552;82;26297;-85
2021/01/11 05:45:49;;;;;;;;;;;;;;;-3.25;67.50;98655.14;1725258;82;24622;-85
2021/01/11 05:48:35;;;;;;;;;;;;;;;-3.27;67.50;98664.11;1705690;83;20479;-85
2021/01/11 05:51:21;;;;;;;;;;;;;;;-3.31;67.51;98659.89;1703680;83;25122;-85
2021/01/11 05:54:07;;;;;;;;;;;;;;;-3.37;67.49;98659.95;1687952;84;22183;-85
2021/01/11 05:56:53;;;;;;;;;;;;;;;-3.36;67.50;98660.37;1687415;84;26277;-85
2021/01/11 05:59:39;;;;;;;;;;;;;;;-3.31;67.51;98661.17;1707998;83;24873;-85
2021/01/11 06:02:28;;;;;;;;;;;;;;;-3.26;67.54;98660.69;1704257;83;20285;-86
2021/01/11 06:05:14;;;;;;;;;;;;;;;-3.29;67.57;98660.73;1711958;83;25758;-86
2021/01/11 06:08:00;;;;;;;;;;;;;;;-3.29;67.61;98658.61;1709175;83;22220;-86
2021/01/11 06:10:46;;;;;;;;;;;;;;;-3.22;67.63;98665.36;1704268;83;26138;-86
2021/01/11 06:13:31;;;;;;;;;;;;;;;-3.15;67.71;98666.53;1709096;83;24569;-85
2021/01/11 06:16:18;;;;;;;;;;;;;;;-3.04;67.75;98673.66;1703456;84;20270;-86
2021/01/11 06:19:06;;;;;;;;;;;;;;;-3.07;67.83;98653.23;1711538;83;24914;-86
2021/01/11 06:21:51;;;;;;;;;;;;;;;-2.85;67.89;98666.61;1705729;84;22318;-86
2021/01/11 06:24:38;;;;;;;;;;;;;;;-2.98;67.94;98674.86;1715704;82;26222;-86
2021/01/11 06:27:23;;;;;;;;;;;;;;;-3.07;67.97;98674.13;1719828;82;24688;-86
2021/01/11 06:30:11;;;;;;;;;;;;;;;-2.90;68.02;98669.66;1711626;82;20641;-86
2021/01/11 06:32:57;;;;;;;;;;;;;;;-2.81;68.07;98680.20;1710415;83;25030;-86
2021/01/11 06:35:45;;;;;;;;;;;;;;;-2.81;68.13;98675.94;1693319;84;20197;-85
2021/01/11 06:38:31;;;;;;;;;;;;;;;-2.68;68.18;98671.52;1693907;84;26394;-86
2021/01/11 06:41:17;;;;;;;;;;;;;;;-2.58;68.22;98673.08;1690771;84;24582;-86
2021/01/11 06:44:03;;;;;;;;;;;;;;;-2.60;68.28;98679.92;1686665;84;20317;-85
2021/01/11 06:46:49;;;;;;;;;;;;;;;-2.67;68.31;98674.03;1688800;83;24953;-86
2021/01/11 06:49:36;;;;;;;;;;;;;;;-2.79;68.32;98674.21;1681176;84;22222;-86
2021/01/11 06:52:22;;;;;;;;;;;;;;;-2.78;68.33;98675.06;1701749;84;26135;-86
2021/01/11 06:55:08;;;;;;;;;;;;;;;-2.69;68.36;98673.22;1702427;84;24787;-86
2021/01/11 06:57:54;;;;;;;;;;;;;;;-2.60;68.39;98675.65;1694172;83;20368;-85
2021/01/11 07:00:40;;;;;;;;;;;;;;;-2.51;68.43;98677.25;1689442;83;24915;-86
2021/01/11 07:03:25;;;;;;;;;;;;;;;-2.40;68.46;98680.48;1691636;83;23054;-86
2021/01/11 07:06:14;;;;;;;;;;;;;;;-2.23;68.53;98683.65;1693455;83;26126;-86
2021/01/11 07:09:00;;;;;;;;;;;;;;;-2.13;68.57;98677.97;1697926;84;24753;-86
2021/01/11 07:11:48;;;;;;;;;;;;;;;-2.09;68.61;98685.17;1691675;83;20322;-85
2021/01/11 07:14:34;;;;;;;;;;;;;;;-2.04;68.64;98689.79;1742205;81;24947;-86
2021/01/11 07:17:20;;;;;;;;;;;;;;;-2.02;68.64;98685.06;1746174;81;22136;-86
2021/01/11 07:20:10;;;;;;;;;;;;;;;-2.01;68.63;98680.75;1741495;81;25742;-85
2021/01/11 07:22:56;;;;;;;;;;;;;;;-2.16;68.61;98686.98;1745770;81;24626;-86
2021/01/11 07:25:42;;;;;;;;;;;;;;;-2.34;68.57;98693.21;1743361;81;20577;-85
2021/01/11 07:28:28;;;;;;;;;;;;;;;-2.40;68.57;98688.17;1739540;81;25073;-85
2021/01/11 07:31:14;;;;;;;;;;;;;;;-2.32;68.54;98690.20;1745837;81;22157;-86
2021/01/11 07:34:04;;;;;;;;;;;;;;;-2.25;68.56;98689.69;1745781;81;26127;-86
2021/01/11 07:36:51;;;;;;;;;;;;;;;-2.17;68.60;98688.69;1744131;81;25517;-86
2021/01/11 07:39:37;;;;;;;;;;;;;;;-2.16;68.64;98694.23;1742252;81;20283;-85
2021/01/11 07:42:25;;;;;;;;;;;;;;;-2.13;68.64;98692.08;1746633;81;25794;-86
2021/01/11 07:45:12;;;;;;;;;;;;;;;-2.14;68.63;98692.51;1743784;81;23168;-85
2021/01/11 07:47:59;;;;;;;;;;;;;;;-2.08;68.61;98688.16;1743556;81;26922;-85
2021/01/11 07:50:46;;;;;;;;;;;;;;;-2.03;68.63;98692.34;1737729;81;24788;-85
2021/01/11 07:53:32;;;;;;;;;;;;;;;-2.01;68.64;98693.58;1741346;81;20628;-86
2021/01/11 07:56:17;;;;;;;;;;;;;;;-2.01;68.63;98698.70;1744249;81;25837;-88
2021/01/11 07:59:03;;;;;;;;;;;;;;;-2.05;68.64;98697.91;1738201;81;22222;-86
2021/01/11 08:01:50;;;;;;;;;;;;;;;-2.00;68.64;98692.71;1741334;81;26199;-85
2021/01/11 08:04:37;;;;;;;;;;;;;;;-1.89;68.64;98686.98;1750330;80;24770;-86
2021/01/11 08:07:23;;;;;;;;;;;;;;;-1.81;68.67;98691.13;1743749;81;20561;-85
2021/01/11 08:10:10;;;;;;;;;;;;;;;-1.71;68.70;98690.10;1742819;81;24899;-85
2021/01/11 08:12:56;;;;;;;;;;;;;;;-1.58;68.75;98693.28;1746249;81;22478;-86
2021/01/11 08:15:47;;;;;;;;;;;;;;;-1.58;68.77;98695.03;1740631;81;26235;-86
2021/01/11 08:18:34;;;;;;;;;;;;;;;-1.65;68.76;98696.00;1742807;81;24636;-87
2021/01/11 08:21:20;;;;;;;;;;;;;;;-1.62;68.75;98692.08;1748775;81;20269;-86
2021/01/11 08:24:06;;;;;;;;;;;;;;;-1.53;68.74;98697.08;1743190;81;25162;-85
2021/01/11 08:26:54;;;;;;;;;;;;;;;-1.49;68.75;98698.27;1750204;81;23142;-86
2021/01/11 08:29:40;;;;;;;;;;;;;;;-1.40;68.78;98699.39;1740097;81;27002;-86
2021/01/11 08:32:26;;;;;;;;;;;;;;;-1.37;68.77;98698.50;1743355;81;24713;-86
2021/01/11 08:35:13;;;;;;;;;;;;;;;-1.33;68.78;98697.13;1736890;81;20288;-86
2021/01/11 08:37:59;;;;;;;;;;;;;;;-1.26;68.80;98697.87;1750358;81;24878;-87
2021/01/11 08:40:49;;;;;;;;;;;;;;;-1.12;68.82;98700.16;1742445;81;22132;-86
2021/01/11 08:43:36;;;;;;;;;;;;;;;-0.98;68.85;98702.02;1741199;81;26308;-86
2021/01/11 08:46:24;;;;;;;;;;;;;;;-0.88;68.89;98702.27;1741194;81;24577;-86
2021/01/11 08:49:11;;;;;;;;;;;;;;;-0.86;68.89;98704.34;1736618;81;20497;-86
2021/01/11 08:51:57;;;;;;;;;;;;;;;-0.87;68.89;98700.08;1750876;81;24864;-86
2021/01/11 08:54:46;;;;;;;;;;;;;;;-0.73;68.92;98703.67;1739667;81;22993;-86
2021/01/11 08:57:33;;;;;;;;;;;;;;;-0.64;68.94;98699.18;1735781;81;26141;-86
2021/01/11 09:00:19;;;;;;;;;;;;;;;-0.59;68.97;98705.50;1744097;81;24715;-86
2021/01/11 09:03:06;;;;;;;;;;;;;;;-0.50;68.97;98707.91;1741453;81;20535;-86
2021/01/11 09:05:52;;;;;;;;;;;;;;;-0.36;69.00;98712.73;1749258;81;24998;-86
2021/01/11 09:08:42;;;;;;;;;;;;;;;-0.29;69.02;98716.88;1745972;81;22321;-86
2021/01/11 09:11:29;;;;;;;;;;;;;;;-0.19;69.02;98712.77;1749327;81;27018;-86
2021/01/11 09:14:18;;;;;;;;;;;;;;;-0.14;69.01;98715.23;1746330;81;24784;-85
2021/01/11 09:17:06;;;;;;;;;;;;;;;-0.15;69.01;98718.25;1746141;81;20168;-86
2021/01/11 09:19:52;;;;;;;;;;;;;;;-0.08;69.00;98720.25;1744311;81;24969;-86
2021/01/11 09:22:39;;;;;;;;;;;;;;;0.01;69.02;98716.16;1747393;81;22419;-86
2021/01/11 09:25:27;;;;;;;;;;;;;;;0.09;69.03;98712.14;1749669;81;26123;-86
2021/01/11 09:28:13;;;;;;;;;;;;;;;0.14;69.01;98711.15;1743999;81;24720;-86
2021/01/11 09:31:00;;;;;;;;;;;;;;;0.20;69.02;98701.16;1749869;81;20332;-85
2021/01/11 09:33:50;;;;;;;;;;;;;;;0.27;69.03;98704.81;1748254;81;24953;-86
2021/01/11 09:36:36;;;;;;;;;;;;;;;0.20;69.00;98697.30;1743861;81;22065;-86
2021/01/11 09:39:24;;;;;;;;;;;;;;;0.21;68.98;98692.55;1742775;81;26305;-86
2021/01/11 09:42:10;;;;;;;;;;;;;;;0.23;68.91;98692.05;1749214;81;24822;-86
2021/01/11 09:44:56;;;;;;;;;;;;;;;0.22;68.86;98689.92;1745926;81;20278;-86
2021/01/11 09:47:44;;;;;;;;;;;;;;;0.21;68.81;98692.12;1747256;80;25079;-85
2021/01/11 09:50:32;;;;;;;;;;;;;;;0.12;68.74;98687.17;1745084;81;22908;-85
2021/01/11 09:53:18;;;;;;;;;;;;;;;0.25;68.70;98691.16;1744241;82;26079;-85
2021/01/11 09:56:04;;;;;;;;;;;;;;;0.33;68.67;98689.22;1748367;81;25484;-85
2021/01/11 09:58:50;;;;;;;;;;;;;;;0.35;68.63;98679.74;1744416;81;20462;-85
2021/01/11 10:01:37;;;;;;;;;;;;;;;0.46;68.60;98682.48;1746425;81;25124;-85
2021/01/11 10:04:23;;;;;;;;;;;;;;;0.55;68.59;98688.23;1746745;81;22916;-85
2021/01/11 10:07:11;;;;;;;;;;;;;;;0.62;68.57;98688.48;1742023;81;26117;-85
2021/01/11 10:09:57;;;;;;;;;;;;;;;0.60;68.53;98679.12;1743056;81;24643;-86
2021/01/11 10:12:45;;;;;;;;;;;;;;;0.55;68.50;98678.38;1744496;81;20304;-85
2021/01/11 10:15:32;;;;;;;;;;;;;;;0.47;68.46;98681.60;1744208;81;25079;-85
2021/01/11 10:18:18;;;;;;;;;;;;;;;0.54;68.39;98681.42;1740517;82;22142;-85
2021/01/11 10:21:06;;;;;;;;;;;;;;;0.72;68.36;98680.07;1740646;81;26138;-85
2021/01/11 10:23:52;;;;;;;;;;;;;;;0.79;68.34;98680.32;1742097;81;24588;-86
2021/01/11 10:26:38;;;;;;;;;;;;;;;0.80;68.29;98676.86;1741855;81;20267;-86
2021/01/11 10:29:25;;;;;;;;;;;;;;;0.81;68.28;98679.41;1739803;81;25070;-85
2021/01/11 10:32:14;;;;;;;;;;;;;;;0.76;68.21;98674.80;1739141;81;22210;-85
2021/01/11 10:35:00;;;;;;;;;;;;;;;0.74;68.15;98667.56;1741349;81;26115;-85
2021/01/11 10:37:46;;;;;;;;;;;;;;;0.79;68.11;98664.86;1747728;81;24633;-85
2021/01/11 10:40:34;;;;;;;;;;;;;;;0.87;68.05;98659.52;1746330;81;20273;-85
2021/01/11 10:43:19;;;;;;;;;;;;;;;0.76;68.02;98658.52;1745617;81;24868;-85
2021/01/11 10:46:06;;;;;;;;;;;;;;;0.77;67.95;98664.89;1742258;81;23242;-86
2021/01/11 10:48:53;;;;;;;;;;;;;;;0.79;67.92;98658.42;1743406;81;26406;-85
2021/01/11 10:51:39;;;;;;;;;;;;;;;0.79;67.88;98657.98;1746337;81;24796;-85
2021/01/11 10:54:25;;;;;;;;;;;;;;;0.71;67.84;98653.47;1739048;81;20667;-85
2021/01/11 10:57:14;;;;;;;;;;;;;;;0.74;67.79;98654.69;1741476;81;25732;-85
2021/01/11 11:00:00;;;;;;;;;;;;;;;0.74;67.76;98645.67;1742749;81;22359;-85
2021/01/11 11:02:47;;;;;;;;;;;;;;;0.76;67.74;98645.17;1741489;81;27143;-85
2021/01/11 11:05:35;;;;;;;;;;;;;;;0.84;67.72;98637.25;1675833;84;25620;-85
2021/01/11 11:08:21;;;;;;;;;;;;;;;0.86;67.71;98631.62;1739269;82;20283;-85
2021/01/11 11:11:07;;;;;;;;;;;;;;;0.86;67.66;98636.77;1740812;82;25697;-85
2021/01/11 11:13:53;;;;;;;;;;;;;;;0.88;67.67;98635.41;1740511;82;22919;-85
2021/01/11 11:16:41;;;;;;;;;;;;;;;0.95;67.65;98631.80;1740853;82;26190;-86
2021/01/11 11:19:31;;;;;;;;;;;;;;;0.79;67.64;98621.08;1740737;82;24828;-86
2021/01/11 11:22:17;;;;;;;;;;;;;;;0.83;67.61;98618.80;1740149;81;20275;-87
2021/01/11 11:25:05;;;;;;;;;;;;;;;0.96;67.60;98612.44;1739073;80;24960;-86
2021/01/11 11:27:52;;;;;;;;;;;;;;;1.06;67.59;98607.85;1677065;85;22148;-86
2021/01/11 11:30:43;;;;;;;;;;;;;;;1.11;67.62;98601.67;1682373;84;25577;-86
2021/01/11 11:33:29;;;;;;;;;;;;;;;1.18;67.63;98600.61;1679631;84;25508;-86
2021/01/11 11:36:16;;;;;;;;;;;;;;;1.10;67.62;98603.00;1741483;80;20317;-86
2021/01/11 11:39:02;;;;;;;;;;;;;;;1.09;67.59;98598.29;1740768;82;24967;-85
2021/01/11 11:41:50;;;;;;;;;;;;;;;1.05;67.56;98586.39;1740292;82;22137;-85
2021/01/11 11:44:36;;;;;;;;;;;;;;;1.11;67.54;98590.52;1740048;82;26089;-86
2021/01/11 11:47:23;;;;;;;;;;;;;;;1.21;67.51;98588.06;1739256;82;25451;-85
2021/01/11 11:50:10;;;;;;;;;;;;;;;1.23;67.51;98579.41;1736359;82;20393;-85
2021/01/11 11:52:59;;;;;;;;;;;;;;;1.29;67.52;98578.83;1741006;82;24909;-86
2021/01/11 11:55:46;;;;;;;;;;;;;;;1.32;67.48;98570.54;1741864;81;22335;-86
2021/01/11 11:58:32;;;;;;;;;;;;;;;1.36;67.48;98568.29;1737812;82;26132;-86
2021/01/11 12:01:19;;;;;;;;;;;;;;;1.45;67.45;98565.86;1740089;82;23833;-85
2021/01/11 12:04:05;;;;;;;;;;;;;;;1.42;67.45;98564.20;1741026;82;20275;-85
2021/01/11 12:06:55;;;;;;;;;;;;;;;1.36;67.41;98563.13;1742357;80;24923;-86
2021/01/11 12:09:41;;;;;;;;;;;;;;;1.33;67.37;98561.08;1686918;84;22971;-85
2021/01/11 12:12:28;;;;;;;;;;;;;;;1.48;67.32;98561.88;1705338;83;27770;-86
2021/01/11 12:15:16;;;;;;;;;;;;;;;1.41;67.29;98550.09;1694522;83;25727;-86
2021/01/11 12:18:03;;;;;;;;;;;;;;;1.45;67.24;98552.97;1713895;82;20301;-86
2021/01/11 12:20:49;;;;;;;;;;;;;;;1.55;67.23;98553.07;1706649;83;24978;-85
2021/01/11 12:23:35;;;;;;;;;;;;;;;1.56;67.17;98547.88;1697636;83;22248;-86
2021/01/11 12:26:25;;;;;;;;;;;;;;;1.56;67.13;98540.13;1693025;83;26367;-86
2021/01/11 12:29:11;;;;;;;;;;;;;;;1.62;67.09;98538.66;1695078;83;24629;-86
2021/01/11 12:31:57;;;;;;;;;;;;;;;1.72;67.07;98539.63;1698228;83;20338;-86
2021/01/11 12:34:43;;;;;;;;;;;;;;;1.68;67.00;98535.88;1694227;83;25651;-87
2021/01/11 12:37:29;;;;;;;;;;;;;;;1.69;66.96;98540.59;1701234;83;22147;-87
2021/01/11 12:40:15;;;;;;;;;;;;;;;1.68;66.88;98532.45;1696663;83;26196;-87
2021/01/11 12:43:01;;;;;;;;;;;;;;;1.62;66.79;98532.64;1690931;83;24631;-86
2021/01/11 12:45:48;;;;;;;;;;;;;;;1.62;66.70;98530.91;1693993;83;20519;-86
2021/01/11 12:48:34;;;;;;;;;;;;;;;1.71;66.62;98531.48;1697071;83;25076;-86
2021/01/11 12:51:21;;;;;;;;;;;;;;;1.79;66.59;98529.08;1697114;83;22111;-86
2021/01/11 12:54:07;;;;;;;;;;;;;;;1.88;66.50;98524.04;1693943;83;26158;-86
2021/01/11 12:56:53;;;;;;;;;;;;;;;1.96;66.49;98518.19;1695136;83;24400;-86
2021/01/11 12:59:39;;;;;;;;;;;;;;;1.86;66.47;98520.21;1692083;83;20275;-86
2021/01/11 13:02:25;;;;;;;;;;;;;;;1.74;66.40;98516.77;1699100;83;24922;-86
2021/01/11 13:05:14;;;;;;;;;;;;;;;1.76;66.33;98514.97;1691957;83;22324;-86
2021/01/11 13:08:00;;;;;;;;;;;;;;;1.73;66.25;98512.50;1681069;84;27089;-86
2021/01/11 13:10:46;;;;;;;;;;;;;;;1.73;66.18;98516.38;1738064;82;24691;-85
2021/01/11 13:13:32;;;;;;;;;;;;;;;1.81;66.10;98515.66;1737054;80;20475;-86
2021/01/11 13:16:18;;;;;;;;;;;;;;;1.85;66.04;98514.68;1734954;82;24911;-85
2021/01/11 13:19:04;;;;;;;;;;;;;;;1.74;66.02;98515.48;1734967;82;22076;-85
2021/01/11 13:21:50;;;;;;;;;;;;;;;1.53;65.95;98512.29;1740380;82;26122;-87
2021/01/11 13:24:36;;;;;;;;;;;;;;;1.38;65.88;98516.22;1738736;82;24722;-84
2021/01/11 13:27:23;;;;;;;;;;;;;;;1.34;65.82;98515.08;1736538;82;20377;-85
2021/01/11 13:30:09;;;;;;;;;;;;;;;1.50;65.77;98513.25;1737427;82;24929;-84
2021/01/11 13:32:56;;;;;;;;;;;;;;;1.59;65.75;98517.25;1736615;82;22166;-84
2021/01/11 13:35:42;;;;;;;;;;;;;;;1.59;65.73;98510.36;1739027;82;26327;-85
2021/01/11 13:38:28;;;;;;;;;;;;;;;1.55;65.73;98510.08;1738286;82;25288;-85
2021/01/11 13:41:14;;;;;;;;;;;;;;;1.41;65.71;98516.58;1735942;82;20287;-86
2021/01/11 13:44:01;;;;;;;;;;;;;;;1.24;65.64;98520.97;1737897;82;24269;-86
2021/01/11 13:46:47;;;;;;;;;;;;;;;1.08;65.58;98518.03;1737400;82;22224;-86
2021/01/11 13:49:33;;;;;;;;;;;;;;;0.99;65.50;98513.13;1736045;82;26139;-86
2021/01/11 13:52:19;;;;;;;;;;;;;;;0.94;65.42;98515.01;1737648;81;25455;-87
2021/01/11 13:55:05;;;;;;;;;;;;;;;0.84;65.38;98512.31;1689734;83;20297;-86
2021/01/11 13:57:51;;;;;;;;;;;;;;;0.75;65.31;98516.45;1734382;82;24984;-86
2021/01/11 14:00:38;;;;;;;;;;;;;;;0.71;65.26;98517.44;1738738;82;22179;-86
2021/01/11 14:03:24;;;;;;;;;;;;;;;0.73;65.20;98513.91;1737719;82;26141;-86
2021/01/11 14:06:10;;;;;;;;;;;;;;;0.78;65.21;98518.48;1740241;80;24516;-85
2021/01/11 14:08:56;;;;;;;;;;;;;;;0.84;65.21;98511.88;1746475;81;20298;-86
2021/01/11 14:11:47;;;;;;;;;;;;;;;0.76;65.21;98514.28;1752848;81;25035;-86
2021/01/11 14:14:31;;;;;;;;;;;;;;;0.58;65.18;98507.08;1748217;81;22047;-86
2021/01/11 14:17:17;;;;;;;;;;;;;;;0.55;65.14;98513.59;1744334;82;27043;-86
2021/01/11 14:20:04;;;;;;;;;;;;;;;0.51;65.11;98516.70;1748501;81;24633;-86
2021/01/11 14:22:49;;;;;;;;;;;;;;;0.50;65.09;98516.74;1744592;81;20373;-86
2021/01/11 14:25:38;;;;;;;;;;;;;;;0.50;65.07;98516.30;1746296;80;25134;-86
2021/01/11 14:28:25;;;;;;;;;;;;;;;0.70;65.10;98522.19;1710646;83;22155;-85
2021/01/11 14:31:11;;;;;;;;;;;;;;;0.78;65.11;98518.48;1717001;82;26301;-86